This is the latest recevied weather packets stored in our database for station/object SP2CDN-10. If no packets are shown the sender has not sent any weather packets the latest 10 day(s).
| Time | Temp. | Humidity | Pressure | Rain* | Wind** | Luminosity | Snow |
|---|---|---|---|---|---|---|---|
| 1788376157 | 17.78° C | 73% | 1017.4 hPa | - | - | - | - |
| 1788373875 | 17.78° C | 72% | 1017.3 hPa | - | - | - | - |
| 1788371594 | 18.33° C | 71% | 1017.2 hPa | - | - | - | - |
| 1788369328 | 18.89° C | 67% | 1017.1 hPa | - | - | - | - |
| 1788367031 | 20° C | 62% | 1017.1 hPa | - | - | - | - |
| 1788364749 | 20.56° C | 58% | 1017 hPa | - | - | - | - |
| 1788362467 | 21.11° C | 52% | 1017.2 hPa | - | - | - | - |
| 1788360185 | 21.67° C | 50% | 1017.3 hPa | - | - | - | - |
| 1788357904 | 21.67° C | 51% | 1017.5 hPa | - | - | - | - |
| 1788355622 | 26.67° C | 37% | 1017.3 hPa | - | - | - | - |
| 1788353340 | 22.78° C | 47% | 1017.4 hPa | - | - | - | - |
| 1788351059 | 26.67° C | 39% | 1017.8 hPa | - | - | - | - |
| 1788348777 | 22.22° C | 49% | 1018 hPa | - | - | - | - |
| 1788346495 | 21.11° C | 55% | 1017.9 hPa | - | - | - | - |
| 1788344214 | 20.56° C | 61% | 1018 hPa | - | - | - | - |
| 1788341932 | 18.89° C | 66% | 1018.1 hPa | - | - | - | - |
| 1788339651 | 18.33° C | 70% | 1018 hPa | - | - | - | - |
| 1788337369 | 19.44° C | 69% | 1017.9 hPa | - | - | - | - |
| 1788335088 | 18.33° C | 77% | 1017.7 hPa | - | - | - | - |
| 1788332809 | 17.78° C | 79% | 1017.6 hPa | - | - | - | - |
| 1788330529 | 15.56° C | 98% | 1017.4 hPa | - | - | - | - |
| 1788328245 | 15° C | 100% | 1017.2 hPa | - | - | - | - |
| 1788325964 | 13.89° C | 100% | 1017.1 hPa | - | - | - | - |
| 1788323681 | 13.33° C | 100% | 1016.9 hPa | - | - | - | - |
| 1788321399 | 13.33° C | 100% | 1016.6 hPa | - | - | - | - |
* Rain since midnight (hover to see other rain measurements)
** Current wind speed in m/s (hover to see current wind gust speed)